• Join FlightAware (Why Join?)
  • Login
  • US Flag 
01:42AM EDT


 

Airport Tracker/Info


-or-


 

Live Flight TrackerFlight Track Log ✈ N98DB ✈ 22-Apr-2012 ✈ KGCK - KAAO

Flight Track Log - Related Links

Times and Time Zones

All times are in EDT time to prevent confusion due to time zone crossing. See the N98DB flight status page for this flight to view local times or setup timezone preferences in your user account.

Time Position Orientation Groundspeed Altitude Reporting Facility
EDT Latitude Longitude Course Direction KTS MPH feet Rate Location/Type
08:48PM 37.9414 -100.7156 107° East 89 102 3,500  Level Kansas City Center
08:49PM 37.9328 -100.6806 96° East 57 66 4,400 840 Climbing Kansas City Center
08:50PM 37.9289 -100.6356 92° East 100 115 5,200 900 Climbing Kansas City Center
08:51PM 37.9272 -100.5853 92° East 129 148 6,200 840 Climbing Kansas City Center
08:52PM 37.9258 -100.5325 90° East 142 163 6,900 720 Climbing Kansas City Center
08:53PM 37.9261 -100.4853 94° East 142 163 7,700 780 Climbing Kansas City Center
08:54PM 37.9228 -100.4297 92° East 147 169 8,500 840 Climbing Kansas City Center
08:55PM 37.9214 -100.3689 94° East 154 177 9,400 840 Climbing Kansas City Center
08:56PM 37.9181 -100.3133 92° East 154 177 10,200 780 Climbing Kansas City Center
08:57PM 37.9164 -100.2606 94° East 160 184 11,000 360 Climbing Kansas City Center
08:58PM 37.9131 -100.1972 95° East 168 193 11,000  Level Kansas City Center
08:59PM 37.9083 -100.1231 94° East 181 208 11,000  Level Kansas City Center
09:00PM 37.9050 -100.0569 94° East 181 208 11,000  Level Kansas City Center
09:01PM 37.9017 -99.9936 91° East 181 208 11,000  Level Kansas City Center
09:02PM 37.9006 -99.9278 95° East 181 208 11,000  Level Kansas City Center
09:03PM 37.8956 -99.8536 93° East 181 208 11,000  Level Kansas City Center
09:04PM 37.8925 -99.7850 92° East 181 208 11,000  Level Kansas City Center
09:05PM 37.8908 -99.7244 94° East 181 208 11,000  Level Kansas City Center
09:06PM 37.8875 -99.6583 94° East 181 208 11,000  Level Kansas City Center
09:07PM 37.8842 -99.5897 94° East 181 208 11,000  Level Kansas City Center
09:08PM 37.8808 -99.5236 93° East 181 208 11,000  Level Kansas City Center
09:09PM 37.8789 -99.4683 94° East 181 208 11,000  Level Kansas City Center
09:10PM 37.8753 -99.4022 94° East 181 208 11,000  Level Kansas City Center
09:11PM 37.8717 -99.3389 94° East 181 208 11,000  Level Kansas City Center
09:12PM 37.8681 -99.2728 94° East 181 208 11,000  Level Kansas City Center
09:13PM 37.8644 -99.2094 92° East 181 208 11,000  Level Kansas City Center
09:14PM 37.8628 -99.1436 94° East 181 208 11,000  Level Kansas City Center
09:15PM 37.8589 -99.0803 92° East 181 208 11,000  Level Kansas City Center
09:16PM 37.8572 -99.0169 94° East 181 208 11,000  Level Kansas City Center
09:17PM 37.8533 -98.9536 97° East 181 208 11,000  Level Kansas City Center
09:18PM 37.8472 -98.8903 90° East 181 208 11,000  Level Kansas City Center
09:19PM 37.8475 -98.8269 92° East 181 208 11,000 -60 Level Kansas City Center
09:20PM 37.8456 -98.7639 99° East 181 208 10,900 -60 Descending Kansas City Center
09:21PM 37.8375 -98.7003 94° East 181 208 10,900  Level Kansas City Center
09:22PM 37.8336 -98.6342 95° East 181 208 10,900  Level Kansas City Center
09:23PM 37.8294 -98.5736 100° East 181 208 10,900  Level Kansas City Center
09:23PM 37.8244 -98.5364 88° East 185 213 10,900  Level Kansas City Center
09:24PM 37.8253 -98.5075 95° East 181 208 10,900  Level Kansas City Center
09:24PM 37.8225 -98.4681 96° East 183 211 10,900 -360 Level Kansas City Center
09:25PM 37.8164 -98.3942 95° East 191 220 10,400 -540 Descending Kansas City Center
09:26PM 37.8122 -98.3333 94° East 203 234 9,900 -540 Descending Kansas City Center
09:27PM 37.8083 -98.2544 94° East 206 237 9,400 -600 Descending Kansas City Center
09:28PM 37.8044 -98.1831 97° East 209 241 8,800 -600 Descending Kansas City Center
09:29PM 37.7981 -98.1144 82° East 206 237 8,300 -540 Descending Kansas City Center
09:30PM 37.8011 -98.0858 95° East 202 232 8,100 -480 Descending Kansas City Center
09:31PM 37.7969 -98.0197 96° East 197 227 7,600 -540 Descending Kansas City Center
09:32PM 37.7906 -97.9486 95° East 197 227 7,100 -600 Descending Kansas City Center
09:33PM 37.7861 -97.8828 92° East 197 227 6,500 -720 Descending Kansas City Center
09:33PM 37.7853 -97.8433 94° East 186 214 6,100 -600 Descending Kansas City Center
09:34PM 37.7839 -97.8169 92° East 197 227 5,900 -240 Descending Kansas City Center
09:34PM 37.7828 -97.7800 94° East 181 208 5,900  Level Kansas City Center
09:35PM 37.7814 -97.7564 92° East 185 213 5,900 -120 Level Kansas City Center
09:35PM 37.7803 -97.7222 88° East 167 192 5,800 -420 Descending Kansas City Center
09:36PM 37.7817 -97.6669 88° East 167 192 5,300 -480 Descending Kansas City Center
09:37PM 37.7833 -97.6014 85° East 170 196 4,900 -480 Descending Kansas City Center
09:38PM 37.7869 -97.5436 99° East 167 192 4,400 -480 Descending Kansas City Center
09:39PM 37.7800 -97.4856 99° East 168 193 4,000 -300 Descending Kansas City Center
09:40PM 37.7731 -97.4328 98° East 152 175 3,900 -180 Descending Kansas City Center
09:41PM 37.7681 -97.3853 98° East 140 161 3,700 -240 Descending Kansas City Center